sensor_id;sensor_type;location;lat;lon;timestamp;pressure;altitude;pressure_sealevel;temperature;humidity
19783;BME280;10051;40.294;-3.754;2022-07-29T00:01:00;93857.22;;;30.03;24.53
19783;BME280;10051;40.294;-3.754;2022-07-29T00:03:26;93846.53;;;29.92;24.60
19783;BME280;10051;40.294;-3.754;2022-07-29T00:05:51;93855.38;;;29.96;24.83
19783;BME280;10051;40.294;-3.754;2022-07-29T00:08:18;93873.91;;;30.02;24.87
19783;BME280;10051;40.294;-3.754;2022-07-29T00:10:44;93874.69;;;30.02;24.76
19783;BME280;10051;40.294;-3.754;2022-07-29T00:13:09;93837.50;;;29.75;24.68
19783;BME280;10051;40.294;-3.754;2022-07-29T00:15:35;93877.03;;;30.00;24.74
19783;BME280;10051;40.294;-3.754;2022-07-29T00:18:01;93802.38;;;29.44;24.89
19783;BME280;10051;40.294;-3.754;2022-07-29T00:20:26;93863.25;;;29.87;24.83
19783;BME280;10051;40.294;-3.754;2022-07-29T00:22:52;93781.22;;;29.35;24.93
19783;BME280;10051;40.294;-3.754;2022-07-29T00:25:19;93865.06;;;29.97;24.66
19783;BME280;10051;40.294;-3.754;2022-07-29T00:27:45;93877.88;;;29.93;24.73
19783;BME280;10051;40.294;-3.754;2022-07-29T00:30:13;93863.22;;;29.91;25.11
19783;BME280;10051;40.294;-3.754;2022-07-29T00:32:39;93830.38;;;29.61;24.93
19783;BME280;10051;40.294;-3.754;2022-07-29T00:35:05;93801.19;;;29.45;25.02
19783;BME280;10051;40.294;-3.754;2022-07-29T00:37:49;93852.53;;;29.80;24.95
19783;BME280;10051;40.294;-3.754;2022-07-29T00:40:15;93793.53;;;29.36;25.03
19783;BME280;10051;40.294;-3.754;2022-07-29T00:42:45;93820.41;;;29.55;25.14
19783;BME280;10051;40.294;-3.754;2022-07-29T00:45:11;93804.78;;;29.35;25.04
19783;BME280;10051;40.294;-3.754;2022-07-29T00:47:37;93829.75;;;29.50;25.21
19783;BME280;10051;40.294;-3.754;2022-07-29T00:50:07;93855.50;;;29.62;25.00
19783;BME280;10051;40.294;-3.754;2022-07-29T00:52:36;93820.63;;;29.36;25.28
19783;BME280;10051;40.294;-3.754;2022-07-29T00:55:07;93856.66;;;29.61;25.33
19783;BME280;10051;40.294;-3.754;2022-07-29T00:57:34;93852.50;;;29.56;25.34
19783;BME280;10051;40.294;-3.754;2022-07-29T01:00:00;93786.09;;;29.17;25.34
19783;BME280;10051;40.294;-3.754;2022-07-29T01:02:25;93854.38;;;29.59;25.39
19783;BME280;10051;40.294;-3.754;2022-07-29T01:04:52;93757.03;;;28.93;25.13
19783;BME280;10051;40.294;-3.754;2022-07-29T01:07:18;93831.75;;;29.46;25.30
19783;BME280;10051;40.294;-3.754;2022-07-29T01:09:45;93678.09;;;28.40;25.14
19783;BME280;10051;40.294;-3.754;2022-07-29T01:12:16;93716.47;;;28.59;25.31
19783;BME280;10051;40.294;-3.754;2022-07-29T01:14:43;93835.34;;;29.35;25.48
19783;BME280;10051;40.294;-3.754;2022-07-29T01:17:16;93841.47;;;29.43;25.49
19783;BME280;10051;40.294;-3.754;2022-07-29T01:20:05;93839.91;;;29.42;25.59
19783;BME280;10051;40.294;-3.754;2022-07-29T01:28:52;93851.78;;;29.52;25.56
19783;BME280;10051;40.294;-3.754;2022-07-29T01:31:41;93856.00;;;29.53;25.52
19783;BME280;10051;40.294;-3.754;2022-07-29T01:34:11;93800.00;;;29.19;25.60
19783;BME280;10051;40.294;-3.754;2022-07-29T01:36:57;93796.56;;;29.15;25.71
19783;BME280;10051;40.294;-3.754;2022-07-29T01:39:30;93722.31;;;28.54;25.62
19783;BME280;10051;40.294;-3.754;2022-07-29T01:42:11;93864.66;;;29.44;25.94
19783;BME280;10051;40.294;-3.754;2022-07-29T01:44:45;93802.59;;;28.95;26.32
19783;BME280;10051;40.294;-3.754;2022-07-29T01:47:20;93780.34;;;28.84;26.01
19783;BME280;10051;40.294;-3.754;2022-07-29T01:49:51;93837.16;;;29.15;26.05
19783;BME280;10051;40.294;-3.754;2022-07-29T01:52:55;93803.66;;;28.70;26.47
19783;BME280;10051;40.294;-3.754;2022-07-29T01:55:27;93865.97;;;28.98;26.70
19783;BME280;10051;40.294;-3.754;2022-07-29T01:57:54;93807.41;;;28.45;26.69
19783;BME280;10051;40.294;-3.754;2022-07-29T02:00:22;93785.22;;;28.23;27.14
19783;BME280;10051;40.294;-3.754;2022-07-29T02:02:49;93794.22;;;28.13;27.53
19783;BME280;10051;40.294;-3.754;2022-07-29T02:05:18;93772.31;;;27.96;27.67
19783;BME280;10051;40.294;-3.754;2022-07-29T02:07:47;93853.94;;;28.64;27.50
19783;BME280;10051;40.294;-3.754;2022-07-29T02:10:14;93766.53;;;27.98;27.94
19783;BME280;10051;40.294;-3.754;2022-07-29T02:12:43;93854.53;;;28.44;28.07
19783;BME280;10051;40.294;-3.754;2022-07-29T02:15:11;93829.59;;;28.26;28.03
19783;BME280;10051;40.294;-3.754;2022-07-29T02:17:56;93852.63;;;28.41;28.07
19783;BME280;10051;40.294;-3.754;2022-07-29T02:20:23;93842.75;;;28.24;28.41
19783;BME280;10051;40.294;-3.754;2022-07-29T02:22:52;93790.69;;;27.70;28.66
19783;BME280;10051;40.294;-3.754;2022-07-29T02:25:20;93830.47;;;28.08;28.07
19783;BME280;10051;40.294;-3.754;2022-07-29T02:27:49;93839.34;;;28.12;28.17
19783;BME280;10051;40.294;-3.754;2022-07-29T02:30:16;93818.09;;;28.14;28.28
19783;BME280;10051;40.294;-3.754;2022-07-29T02:32:43;93832.59;;;28.35;28.52
19783;BME280;10051;40.294;-3.754;2022-07-29T02:35:12;93863.81;;;28.43;28.51
19783;BME280;10051;40.294;-3.754;2022-07-29T02:37:40;93869.81;;;28.20;28.98
19783;BME280;10051;40.294;-3.754;2022-07-29T02:40:09;93806.88;;;27.67;29.27
19783;BME280;10051;40.294;-3.754;2022-07-29T02:42:37;93833.94;;;28.12;28.93
19783;BME280;10051;40.294;-3.754;2022-07-29T02:45:05;93849.81;;;28.07;29.41
19783;BME280;10051;40.294;-3.754;2022-07-29T02:50:06;93871.19;;;28.35;29.40
19783;BME280;10051;40.294;-3.754;2022-07-29T02:52:42;93829.94;;;27.82;29.96
19783;BME280;10051;40.294;-3.754;2022-07-29T02:55:19;93880.47;;;27.85;30.11
19783;BME280;10051;40.294;-3.754;2022-07-29T02:57:53;93878.84;;;27.95;29.81
19783;BME280;10051;40.294;-3.754;2022-07-29T03:00:21;93880.72;;;28.02;29.97
19783;BME280;10051;40.294;-3.754;2022-07-29T03:02:52;93773.94;;;27.34;31.00
19783;BME280;10051;40.294;-3.754;2022-07-29T03:05:20;93877.09;;;27.67;31.64
19783;BME280;10051;40.294;-3.754;2022-07-29T03:08:06;93879.47;;;27.61;31.36
19783;BME280;10051;40.294;-3.754;2022-07-29T03:10:34;93852.50;;;27.57;31.15
19783;BME280;10051;40.294;-3.754;2022-07-29T03:13:00;93893.53;;;27.90;30.86
19783;BME280;10051;40.294;-3.754;2022-07-29T03:15:27;93822.41;;;27.55;30.34
19783;BME280;10051;40.294;-3.754;2022-07-29T03:17:52;93889.41;;;27.75;31.36
19783;BME280;10051;40.294;-3.754;2022-07-29T03:20:19;93764.22;;;26.69;31.75
19783;BME280;10051;40.294;-3.754;2022-07-29T03:22:45;93880.16;;;27.72;31.08
19783;BME280;10051;40.294;-3.754;2022-07-29T03:25:15;93844.81;;;27.52;31.21
19783;BME280;10051;40.294;-3.754;2022-07-29T03:27:42;93890.84;;;27.90;31.09
19783;BME280;10051;40.294;-3.754;2022-07-29T03:30:09;93825.31;;;27.15;31.95
19783;BME280;10051;40.294;-3.754;2022-07-29T03:32:35;93886.34;;;27.66;31.71
19783;BME280;10051;40.294;-3.754;2022-07-29T03:35:02;93879.38;;;27.75;31.28
19783;BME280;10051;40.294;-3.754;2022-07-29T03:37:28;93881.22;;;27.86;31.35
19783;BME280;10051;40.294;-3.754;2022-07-29T03:39:57;93880.28;;;27.47;32.82
19783;BME280;10051;40.294;-3.754;2022-07-29T03:42:25;93883.81;;;27.33;32.82
19783;BME280;10051;40.294;-3.754;2022-07-29T03:44:52;93768.88;;;26.68;32.43
19783;BME280;10051;40.294;-3.754;2022-07-29T03:47:22;93727.69;;;26.57;31.99
19783;BME280;10051;40.294;-3.754;2022-07-29T03:49:50;93884.19;;;27.31;32.79
19783;BME280;10051;40.294;-3.754;2022-07-29T03:52:17;93758.97;;;26.33;33.18
19783;BME280;10051;40.294;-3.754;2022-07-29T03:54:43;93856.59;;;26.95;33.40
19783;BME280;10051;40.294;-3.754;2022-07-29T03:57:10;93826.97;;;26.77;33.02
19783;BME280;10051;40.294;-3.754;2022-07-29T03:59:36;93853.91;;;26.98;33.46
19783;BME280;10051;40.294;-3.754;2022-07-29T04:02:04;93804.28;;;26.67;33.29
19783;BME280;10051;40.294;-3.754;2022-07-29T04:04:34;93885.41;;;27.23;33.23
19783;BME280;10051;40.294;-3.754;2022-07-29T04:07:00;93882.69;;;27.23;33.59
19783;BME280;10051;40.294;-3.754;2022-07-29T04:09:26;93831.59;;;26.72;33.60
19783;BME280;10051;40.294;-3.754;2022-07-29T04:11:52;93855.47;;;26.78;33.70
19783;BME280;10051;40.294;-3.754;2022-07-29T04:14:18;93778.63;;;26.26;33.64
19783;BME280;10051;40.294;-3.754;2022-07-29T04:16:43;93870.81;;;27.06;33.09
19783;BME280;10051;40.294;-3.754;2022-07-29T04:19:09;93832.38;;;26.88;32.65
19783;BME280;10051;40.294;-3.754;2022-07-29T04:21:41;93812.38;;;26.70;32.62
19783;BME280;10051;40.294;-3.754;2022-07-29T04:24:07;93793.50;;;26.70;32.63
19783;BME280;10051;40.294;-3.754;2022-07-29T04:26:33;93851.50;;;27.19;32.41
19783;BME280;10051;40.294;-3.754;2022-07-29T04:28:59;93911.06;;;27.60;32.28
19783;BME280;10051;40.294;-3.754;2022-07-29T04:31:24;93879.63;;;27.21;33.17
19783;BME280;10051;40.294;-3.754;2022-07-29T04:33:50;93913.06;;;27.38;33.28
19783;BME280;10051;40.294;-3.754;2022-07-29T04:36:16;93860.47;;;26.90;33.55
19783;BME280;10051;40.294;-3.754;2022-07-29T04:38:41;93870.44;;;27.08;33.55
19783;BME280;10051;40.294;-3.754;2022-07-29T04:41:07;93907.34;;;27.33;33.24
19783;BME280;10051;40.294;-3.754;2022-07-29T04:43:34;93878.16;;;27.06;33.67
19783;BME280;10051;40.294;-3.754;2022-07-29T04:46:00;93952.47;;;27.32;33.72
19783;BME280;10051;40.294;-3.754;2022-07-29T04:48:26;93867.84;;;26.61;34.29
19783;BME280;10051;40.294;-3.754;2022-07-29T04:50:51;93874.34;;;26.78;34.07
19783;BME280;10051;40.294;-3.754;2022-07-29T04:53:17;93860.53;;;26.65;34.00
19783;BME280;10051;40.294;-3.754;2022-07-29T04:55:43;93940.59;;;27.00;34.23
19783;BME280;10051;40.294;-3.754;2022-07-29T04:58:10;93854.81;;;26.30;34.46
19783;BME280;10051;40.294;-3.754;2022-07-29T05:00:35;93959.09;;;26.95;35.12
19783;BME280;10051;40.294;-3.754;2022-07-29T05:03:01;93920.59;;;26.69;34.58
19783;BME280;10051;40.294;-3.754;2022-07-29T05:05:27;93898.66;;;26.60;35.01
19783;BME280;10051;40.294;-3.754;2022-07-29T05:07:52;93909.84;;;26.58;35.56
19783;BME280;10051;40.294;-3.754;2022-07-29T05:10:18;93929.47;;;26.69;35.20
19783;BME280;10051;40.294;-3.754;2022-07-29T05:12:43;93917.56;;;26.41;35.35
19783;BME280;10051;40.294;-3.754;2022-07-29T05:15:09;93879.81;;;26.09;35.02
19783;BME280;10051;40.294;-3.754;2022-07-29T05:17:35;93939.13;;;26.49;34.43
19783;BME280;10051;40.294;-3.754;2022-07-29T05:20:00;93927.56;;;26.19;34.97
19783;BME280;10051;40.294;-3.754;2022-07-29T05:22:26;93932.56;;;26.13;35.24
19783;BME280;10051;40.294;-3.754;2022-07-29T05:24:51;93953.75;;;26.19;34.66
19783;BME280;10051;40.294;-3.754;2022-07-29T05:27:17;93941.81;;;26.34;34.73
19783;BME280;10051;40.294;-3.754;2022-07-29T05:29:42;93956.81;;;26.17;35.37
19783;BME280;10051;40.294;-3.754;2022-07-29T05:32:08;93954.84;;;25.92;35.55
19783;BME280;10051;40.294;-3.754;2022-07-29T05:34:33;93957.13;;;25.90;35.86
19783;BME280;10051;40.294;-3.754;2022-07-29T05:37:00;93932.91;;;25.79;35.69
19783;BME280;10051;40.294;-3.754;2022-07-29T05:39:26;93898.22;;;25.60;35.39
19783;BME280;10051;40.294;-3.754;2022-07-29T05:41:51;93881.63;;;25.43;35.53
19783;BME280;10051;40.294;-3.754;2022-07-29T05:44:17;93966.41;;;26.07;35.41
19783;BME280;10051;40.294;-3.754;2022-07-29T05:46:42;93869.31;;;25.38;36.48
19783;BME280;10051;40.294;-3.754;2022-07-29T05:49:08;93948.66;;;25.84;36.78
19783;BME280;10051;40.294;-3.754;2022-07-29T05:51:34;93866.66;;;25.49;36.33
19783;BME280;10051;40.294;-3.754;2022-07-29T05:53:59;93934.28;;;27.40;33.27
19783;BME280;10051;40.294;-3.754;2022-07-29T05:56:25;93993.41;;;29.11;31.07
19783;BME280;10051;40.294;-3.754;2022-07-29T05:58:51;93938.69;;;29.30;29.93
19783;BME280;10051;40.294;-3.754;2022-07-29T06:01:17;93955.06;;;28.74;31.04
19783;BME280;10051;40.294;-3.754;2022-07-29T06:03:42;93950.97;;;28.02;31.96
19783;BME280;10051;40.294;-3.754;2022-07-29T06:06:08;93957.34;;;27.63;32.79
19783;BME280;10051;40.294;-3.754;2022-07-29T06:08:34;93927.47;;;27.06;33.54
19783;BME280;10051;40.294;-3.754;2022-07-29T06:11:00;94009.09;;;27.43;33.87
19783;BME280;10051;40.294;-3.754;2022-07-29T06:13:26;94006.06;;;27.26;33.88
19783;BME280;10051;40.294;-3.754;2022-07-29T06:15:51;93962.16;;;26.97;33.99
19783;BME280;10051;40.294;-3.754;2022-07-29T06:18:17;93967.56;;;27.04;34.33
19783;BME280;10051;40.294;-3.754;2022-07-29T06:20:42;93996.81;;;27.31;34.87
19783;BME280;10051;40.294;-3.754;2022-07-29T06:23:08;93883.66;;;26.62;34.22
19783;BME280;10051;40.294;-3.754;2022-07-29T06:25:35;94008.66;;;27.63;34.29
19783;BME280;10051;40.294;-3.754;2022-07-29T06:28:02;93993.63;;;27.61;34.30
19783;BME280;10051;40.294;-3.754;2022-07-29T06:30:27;93993.56;;;27.80;34.31
19783;BME280;10051;40.294;-3.754;2022-07-29T06:32:54;93970.34;;;27.86;32.67
19783;BME280;10051;40.294;-3.754;2022-07-29T06:35:20;93935.72;;;27.70;32.81
19783;BME280;10051;40.294;-3.754;2022-07-29T06:37:45;93908.72;;;27.73;32.83
19783;BME280;10051;40.294;-3.754;2022-07-29T06:40:11;94009.31;;;28.56;32.23
19783;BME280;10051;40.294;-3.754;2022-07-29T06:42:55;94009.34;;;28.48;32.56
19783;BME280;10051;40.294;-3.754;2022-07-29T06:45:21;94023.88;;;28.69;31.79
19783;BME280;10051;40.294;-3.754;2022-07-29T06:47:46;93996.25;;;28.47;31.62
19783;BME280;10051;40.294;-3.754;2022-07-29T06:50:12;94002.72;;;28.57;32.30
19783;BME280;10051;40.294;-3.754;2022-07-29T06:52:38;93965.16;;;28.20;32.09
19783;BME280;10051;40.294;-3.754;2022-07-29T06:55:04;94018.16;;;28.63;32.37
19783;BME280;10051;40.294;-3.754;2022-07-29T06:57:30;94015.41;;;28.67;31.78
19783;BME280;10051;40.294;-3.754;2022-07-29T06:59:58;94070.81;;;29.01;31.91
19783;BME280;10051;40.294;-3.754;2022-07-29T07:02:24;94043.03;;;28.93;31.58
19783;BME280;10051;40.294;-3.754;2022-07-29T07:04:49;94019.84;;;28.96;31.30
19783;BME280;10051;40.294;-3.754;2022-07-29T07:07:15;94025.88;;;29.11;31.10
19783;BME280;10051;40.294;-3.754;2022-07-29T07:09:40;94042.28;;;29.34;31.17
19783;BME280;10051;40.294;-3.754;2022-07-29T07:12:06;94034.81;;;29.46;30.66
19783;BME280;10051;40.294;-3.754;2022-07-29T07:14:32;94065.84;;;29.76;30.61
19783;BME280;10051;40.294;-3.754;2022-07-29T07:16:57;94043.00;;;29.77;30.44
19783;BME280;10051;40.294;-3.754;2022-07-29T07:19:25;94035.78;;;29.97;30.77
19783;BME280;10051;40.294;-3.754;2022-07-29T07:21:52;94057.31;;;30.12;31.44
19783;BME280;10051;40.294;-3.754;2022-07-29T07:24:18;94024.06;;;30.08;31.02
19783;BME280;10051;40.294;-3.754;2022-07-29T07:26:43;94061.69;;;30.30;30.32
19783;BME280;10051;40.294;-3.754;2022-07-29T07:29:08;94046.66;;;30.25;30.03
19783;BME280;10051;40.294;-3.754;2022-07-29T07:31:34;94056.94;;;30.10;29.87
19783;BME280;10051;40.294;-3.754;2022-07-29T07:33:59;94094.25;;;30.61;30.19
19783;BME280;10051;40.294;-3.754;2022-07-29T07:36:25;94056.13;;;30.13;30.27
19783;BME280;10051;40.294;-3.754;2022-07-29T07:38:50;94095.97;;;30.16;30.54
19783;BME280;10051;40.294;-3.754;2022-07-29T07:41:16;94043.84;;;30.05;30.34
19783;BME280;10051;40.294;-3.754;2022-07-29T07:43:41;94070.16;;;30.35;30.14
19783;BME280;10051;40.294;-3.754;2022-07-29T07:46:07;94101.22;;;30.62;29.62
19783;BME280;10051;40.294;-3.754;2022-07-29T07:48:32;94042.47;;;30.48;29.96
19783;BME280;10051;40.294;-3.754;2022-07-29T07:51:00;94046.88;;;30.65;28.87
19783;BME280;10051;40.294;-3.754;2022-07-29T07:53:26;94036.31;;;30.71;29.50
19783;BME280;10051;40.294;-3.754;2022-07-29T07:55:51;94036.22;;;30.78;29.29
19783;BME280;10051;40.294;-3.754;2022-07-29T07:58:17;94047.44;;;31.04;29.45
19783;BME280;10051;40.294;-3.754;2022-07-29T08:00:42;94044.72;;;30.80;29.41
19783;BME280;10051;40.294;-3.754;2022-07-29T08:03:08;94019.47;;;30.83;29.27
19783;BME280;10051;40.294;-3.754;2022-07-29T08:05:33;94068.56;;;31.17;29.36
19783;BME280;10051;40.294;-3.754;2022-07-29T08:08:01;94037.63;;;30.86;29.68
19783;BME280;10051;40.294;-3.754;2022-07-29T08:10:27;94058.03;;;30.71;29.88
19783;BME280;10051;40.294;-3.754;2022-07-29T08:13:11;94042.16;;;30.69;30.06
19783;BME280;10051;40.294;-3.754;2022-07-29T08:15:38;94050.34;;;31.13;29.57
19783;BME280;10051;40.294;-3.754;2022-07-29T08:18:04;94064.78;;;31.34;28.87
19783;BME280;10051;40.294;-3.754;2022-07-29T08:20:30;94109.59;;;31.66;28.64
19783;BME280;10051;40.294;-3.754;2022-07-29T08:22:58;94071.91;;;31.48;28.91
19783;BME280;10051;40.294;-3.754;2022-07-29T08:25:24;94040.72;;;31.12;28.82
19783;BME280;10051;40.294;-3.754;2022-07-29T08:27:49;94102.09;;;31.30;29.21
19783;BME280;10051;40.294;-3.754;2022-07-29T08:30:15;94074.78;;;31.17;30.44
19783;BME280;10051;40.294;-3.754;2022-07-29T08:32:41;94107.25;;;31.24;30.14
19783;BME280;10051;40.294;-3.754;2022-07-29T08:35:07;94101.78;;;31.48;29.57
19783;BME280;10051;40.294;-3.754;2022-07-29T08:37:32;94087.38;;;31.71;29.10
19783;BME280;10051;40.294;-3.754;2022-07-29T08:39:58;94107.06;;;31.99;28.88
19783;BME280;10051;40.294;-3.754;2022-07-29T08:42:23;94027.38;;;30.98;29.04
19783;BME280;10051;40.294;-3.754;2022-07-29T08:44:49;94045.25;;;31.19;28.83
19783;BME280;10051;40.294;-3.754;2022-07-29T08:47:15;94064.16;;;31.26;29.15
19783;BME280;10051;40.294;-3.754;2022-07-29T08:49:41;94035.16;;;31.20;28.88
19783;BME280;10051;40.294;-3.754;2022-07-29T08:52:07;94100.97;;;31.71;29.03
19783;BME280;10051;40.294;-3.754;2022-07-29T08:54:35;94054.84;;;31.68;28.80
19783;BME280;10051;40.294;-3.754;2022-07-29T08:57:01;94021.00;;;31.72;28.33
19783;BME280;10051;40.294;-3.754;2022-07-29T08:59:27;94043.03;;;31.98;27.50
19783;BME280;10051;40.294;-3.754;2022-07-29T09:01:53;94066.28;;;32.19;28.00
19783;BME280;10051;40.294;-3.754;2022-07-29T09:04:19;94052.94;;;32.25;28.28
19783;BME280;10051;40.294;-3.754;2022-07-29T09:06:48;94026.38;;;31.96;27.82
19783;BME280;10051;40.294;-3.754;2022-07-29T09:09:15;94025.28;;;32.10;27.43
19783;BME280;10051;40.294;-3.754;2022-07-29T09:11:41;94075.50;;;32.42;27.06
19783;BME280;10051;40.294;-3.754;2022-07-29T09:14:08;94097.25;;;32.79;26.83
19783;BME280;10051;40.294;-3.754;2022-07-29T09:19:28;94100.66;;;33.16;26.75
19783;BME280;10051;40.294;-3.754;2022-07-29T09:21:56;94100.00;;;33.29;26.07
19783;BME280;10051;40.294;-3.754;2022-07-29T09:24:22;94080.41;;;33.17;25.93
19783;BME280;10051;40.294;-3.754;2022-07-29T09:26:48;94037.53;;;32.55;26.72
19783;BME280;10051;40.294;-3.754;2022-07-29T09:29:16;94074.09;;;32.71;27.38
19783;BME280;10051;40.294;-3.754;2022-07-29T09:31:44;94101.69;;;33.06;26.69
19783;BME280;10051;40.294;-3.754;2022-07-29T09:34:10;94102.59;;;33.32;26.38
19783;BME280;10051;40.294;-3.754;2022-07-29T09:36:50;94110.53;;;33.27;26.37
19783;BME280;10051;40.294;-3.754;2022-07-29T09:39:27;94103.38;;;33.33;26.72
19783;BME280;10051;40.294;-3.754;2022-07-29T09:41:55;94007.09;;;32.60;26.64
19783;BME280;10051;40.294;-3.754;2022-07-29T09:44:22;94063.81;;;32.78;25.54
19783;BME280;10051;40.294;-3.754;2022-07-29T09:46:55;94060.94;;;32.86;25.57
19783;BME280;10051;40.294;-3.754;2022-07-29T09:49:21;94068.00;;;32.83;26.17
19783;BME280;10051;40.294;-3.754;2022-07-29T09:51:47;94034.81;;;32.72;25.68
19783;BME280;10051;40.294;-3.754;2022-07-29T09:54:26;94106.28;;;33.42;25.09
19783;BME280;10051;40.294;-3.754;2022-07-29T09:56:53;94089.06;;;33.45;25.24
19783;BME280;10051;40.294;-3.754;2022-07-29T09:59:19;94063.16;;;33.54;24.74
19783;BME280;10051;40.294;-3.754;2022-07-29T10:01:49;94053.28;;;33.60;25.34
19783;BME280;10051;40.294;-3.754;2022-07-29T10:04:16;94063.25;;;33.79;23.97
19783;BME280;10051;40.294;-3.754;2022-07-29T10:06:59;94099.69;;;34.15;23.79
19783;BME280;10051;40.294;-3.754;2022-07-29T10:09:25;94100.03;;;34.30;22.45
19783;BME280;10051;40.294;-3.754;2022-07-29T10:12:11;94100.31;;;34.49;22.66
19783;BME280;10051;40.294;-3.754;2022-07-29T10:14:39;94066.00;;;34.35;22.40
19783;BME280;10051;40.294;-3.754;2022-07-29T10:17:06;94096.97;;;34.28;22.32
19783;BME280;10051;40.294;-3.754;2022-07-29T10:19:33;94099.78;;;34.12;22.86
19783;BME280;10051;40.294;-3.754;2022-07-29T10:22:00;94056.94;;;33.83;23.02
19783;BME280;10051;40.294;-3.754;2022-07-29T10:24:26;94109.81;;;34.44;22.61
19783;BME280;10051;40.294;-3.754;2022-07-29T10:26:55;94057.25;;;34.27;22.29
19783;BME280;10051;40.294;-3.754;2022-07-29T10:29:21;94060.44;;;34.38;22.01
19783;BME280;10051;40.294;-3.754;2022-07-29T10:40:11;94045.38;;;34.60;21.55
19783;BME280;10051;40.294;-3.754;2022-07-29T10:43:09;94097.03;;;35.06;20.79
19783;BME280;10051;40.294;-3.754;2022-07-29T10:45:40;94094.94;;;34.97;20.96
19783;BME280;10051;40.294;-3.754;2022-07-29T10:48:06;94058.38;;;34.81;20.46
19783;BME280;10051;40.294;-3.754;2022-07-29T10:50:54;94084.44;;;35.08;20.46
19783;BME280;10051;40.294;-3.754;2022-07-29T10:53:21;94041.19;;;34.94;20.34
19783;BME280;10051;40.294;-3.754;2022-07-29T10:55:49;94010.72;;;34.95;20.61
19783;BME280;10051;40.294;-3.754;2022-07-29T10:58:18;93979.38;;;34.87;19.61
19783;BME280;10051;40.294;-3.754;2022-07-29T11:00:45;94094.06;;;35.61;20.19
19783;BME280;10051;40.294;-3.754;2022-07-29T11:03:49;94087.88;;;35.70;19.95
19783;BME280;10051;40.294;-3.754;2022-07-29T11:06:17;94033.97;;;35.48;20.23
19783;BME280;10051;40.294;-3.754;2022-07-29T11:08:42;94088.34;;;35.91;20.00
19783;BME280;10051;40.294;-3.754;2022-07-29T11:13:52;94082.38;;;36.05;18.75
19783;BME280;10051;40.294;-3.754;2022-07-29T11:16:21;93998.03;;;35.37;18.61
19783;BME280;10051;40.294;-3.754;2022-07-29T11:19:23;94085.53;;;35.81;19.21
19783;BME280;10051;40.294;-3.754;2022-07-29T11:21:49;94084.97;;;35.86;19.26
19783;BME280;10051;40.294;-3.754;2022-07-29T11:24:18;94079.25;;;35.94;18.60
19783;BME280;10051;40.294;-3.754;2022-07-29T11:26:44;94084.34;;;35.82;18.34
19783;BME280;10051;40.294;-3.754;2022-07-29T11:29:20;94075.88;;;35.90;18.78
19783;BME280;10051;40.294;-3.754;2022-07-29T11:31:50;94078.69;;;35.99;18.54
19783;BME280;10051;40.294;-3.754;2022-07-29T11:34:26;94076.31;;;36.10;17.97
19783;BME280;10051;40.294;-3.754;2022-07-29T11:45:09;94033.78;;;35.65;18.13
19783;BME280;10051;40.294;-3.754;2022-07-29T11:47:40;94045.16;;;35.85;18.04
19783;BME280;10051;40.294;-3.754;2022-07-29T11:50:08;94069.00;;;36.07;18.28
19783;BME280;10051;40.294;-3.754;2022-07-29T11:55:05;94062.22;;;36.12;17.78
19783;BME280;10051;40.294;-3.754;2022-07-29T11:57:31;94043.50;;;35.88;17.77
19783;BME280;10051;40.294;-3.754;2022-07-29T11:59:59;94057.63;;;35.86;17.08
19783;BME280;10051;40.294;-3.754;2022-07-29T12:02:38;93962.75;;;35.29;17.20
19783;BME280;10051;40.294;-3.754;2022-07-29T12:05:04;94040.59;;;35.82;16.92
19783;BME280;10051;40.294;-3.754;2022-07-29T12:07:33;94034.53;;;35.87;16.72
19783;BME280;10051;40.294;-3.754;2022-07-29T12:09:59;94034.22;;;35.85;16.65
19783;BME280;10051;40.294;-3.754;2022-07-29T12:12:25;93971.47;;;35.60;16.77
19783;BME280;10051;40.294;-3.754;2022-07-29T12:14:51;94036.84;;;36.21;16.97
19783;BME280;10051;40.294;-3.754;2022-07-29T12:17:32;94066.69;;;36.59;17.12
19783;BME280;10051;40.294;-3.754;2022-07-29T12:20:02;94061.09;;;36.72;16.45
19783;BME280;10051;40.294;-3.754;2022-07-29T12:22:35;94059.63;;;36.81;17.04
19783;BME280;10051;40.294;-3.754;2022-07-29T12:25:08;94050.78;;;36.76;16.83
19783;BME280;10051;40.294;-3.754;2022-07-29T12:27:35;94047.75;;;36.84;17.13
19783;BME280;10051;40.294;-3.754;2022-07-29T12:30:10;94063.13;;;36.90;16.23
19783;BME280;10051;40.294;-3.754;2022-07-29T12:32:47;94055.03;;;36.78;17.01
19783;BME280;10051;40.294;-3.754;2022-07-29T12:35:18;94005.53;;;36.53;17.19
19783;BME280;10051;40.294;-3.754;2022-07-29T12:37:46;94065.94;;;37.09;16.88
19783;BME280;10051;40.294;-3.754;2022-07-29T12:40:17;94051.63;;;37.05;16.08
19783;BME280;10051;40.294;-3.754;2022-07-29T12:43:11;94061.00;;;36.95;15.85
19783;BME280;10051;40.294;-3.754;2022-07-29T12:45:38;94054.75;;;36.85;16.40
19783;BME280;10051;40.294;-3.754;2022-07-29T12:48:05;94024.78;;;36.40;16.99
19783;BME280;10051;40.294;-3.754;2022-07-29T12:50:34;94042.41;;;36.39;17.23
19783;BME280;10051;40.294;-3.754;2022-07-29T12:53:11;94003.28;;;36.20;16.62
19783;BME280;10051;40.294;-3.754;2022-07-29T12:55:42;94048.03;;;36.76;16.04
19783;BME280;10051;40.294;-3.754;2022-07-29T12:58:08;93984.63;;;36.46;15.89
19783;BME280;10051;40.294;-3.754;2022-07-29T13:00:33;94006.31;;;36.63;15.90
19783;BME280;10051;40.294;-3.754;2022-07-29T13:02:59;94046.91;;;37.15;15.66
19783;BME280;10051;40.294;-3.754;2022-07-29T13:05:58;94006.13;;;37.17;15.55
19783;BME280;10051;40.294;-3.754;2022-07-29T13:08:24;94032.63;;;37.29;15.94
19783;BME280;10051;40.294;-3.754;2022-07-29T13:10:50;94000.94;;;37.00;15.77
19783;BME280;10051;40.294;-3.754;2022-07-29T13:13:16;94041.72;;;37.35;16.29
19783;BME280;10051;40.294;-3.754;2022-07-29T13:15:43;94048.16;;;37.51;15.99
19783;BME280;10051;40.294;-3.754;2022-07-29T13:18:32;94049.69;;;37.61;15.90
19783;BME280;10051;40.294;-3.754;2022-07-29T13:21:10;94040.81;;;37.76;15.20
19783;BME280;10051;40.294;-3.754;2022-07-29T13:23:36;94007.66;;;37.46;14.99
19783;BME280;10051;40.294;-3.754;2022-07-29T13:26:08;94048.78;;;37.74;15.05
19783;BME280;10051;40.294;-3.754;2022-07-29T13:28:34;94039.91;;;37.79;14.58
19783;BME280;10051;40.294;-3.754;2022-07-29T13:31:00;93971.25;;;37.36;14.69